sensor_id;sensor_type;location;lat;lon;timestamp;pressure;altitude;pressure_sealevel;temperature;humidity
17764;BME280;22245;52.832;13.816;2023-01-29T00:00:41;102472.84;;;1.24;64.64
17764;BME280;22245;52.832;13.816;2023-01-29T00:04:05;102475.47;;;1.24;64.11
17764;BME280;22245;52.832;13.816;2023-01-29T00:07:27;102476.28;;;1.26;64.09
17764;BME280;22245;52.832;13.816;2023-01-29T00:10:49;102474.56;;;1.25;64.80
17764;BME280;22245;52.832;13.816;2023-01-29T00:14:11;102466.63;;;1.28;64.20
17764;BME280;22245;52.832;13.816;2023-01-29T00:17:33;102464.91;;;1.27;64.10
17764;BME280;22245;52.832;13.816;2023-01-29T00:20:55;102472.78;;;1.27;64.53
17764;BME280;22245;52.832;13.816;2023-01-29T00:24:16;102468.41;;;1.26;65.04
17764;BME280;22245;52.832;13.816;2023-01-29T00:27:40;102457.91;;;1.26;64.71
17764;BME280;22245;52.832;13.816;2023-01-29T00:31:07;102456.16;;;1.27;64.57
17764;BME280;22245;52.832;13.816;2023-01-29T00:34:28;102447.44;;;1.25;64.64
17764;BME280;22245;52.832;13.816;2023-01-29T00:37:50;102450.94;;;1.24;64.95
17764;BME280;22245;52.832;13.816;2023-01-29T00:41:14;102444.84;;;1.23;65.05
17764;BME280;22245;52.832;13.816;2023-01-29T00:44:55;102447.44;;;1.25;65.02
17764;BME280;22245;52.832;13.816;2023-01-29T00:48:19;102450.03;;;1.26;65.04
17764;BME280;22245;52.832;13.816;2023-01-29T00:51:41;102461.38;;;1.27;65.63
17764;BME280;22245;52.832;13.816;2023-01-29T00:55:05;102465.84;;;1.23;65.57
17764;BME280;22245;52.832;13.816;2023-01-29T00:58:26;102463.22;;;1.23;65.68
17764;BME280;22245;52.832;13.816;2023-01-29T01:01:55;102472.88;;;1.21;65.91
17764;BME280;22245;52.832;13.816;2023-01-29T01:05:34;102472.00;;;1.21;65.71
17764;BME280;22245;52.832;13.816;2023-01-29T01:08:56;102467.63;;;1.21;65.77
17764;BME280;22245;52.832;13.816;2023-01-29T01:12:35;102471.09;;;1.23;66.17
17764;BME280;22245;52.832;13.816;2023-01-29T01:15:57;102473.72;;;1.23;65.43
17764;BME280;22245;52.832;13.816;2023-01-29T01:19:20;102467.63;;;1.21;65.69
17764;BME280;22245;52.832;13.816;2023-01-29T01:22:41;102461.50;;;1.21;66.15
17764;BME280;22245;52.832;13.816;2023-01-29T01:26:07;102458.88;;;1.22;66.03
17764;BME280;22245;52.832;13.816;2023-01-29T01:29:29;102452.72;;;1.23;66.55
17764;BME280;22245;52.832;13.816;2023-01-29T01:32:51;102445.69;;;1.24;66.11
17764;BME280;22245;52.832;13.816;2023-01-29T01:36:14;102450.94;;;1.24;66.35
17764;BME280;22245;52.832;13.816;2023-01-29T01:39:36;102453.56;;;1.25;66.32
17764;BME280;22245;52.832;13.816;2023-01-29T01:42:59;102451.06;;;1.19;67.00
17764;BME280;22245;52.832;13.816;2023-01-29T01:46:21;102447.53;;;1.20;66.89
17764;BME280;22245;52.832;13.816;2023-01-29T01:49:43;102439.66;;;1.20;66.43
17764;BME280;22245;52.832;13.816;2023-01-29T01:53:08;102435.31;;;1.19;66.73
17764;BME280;22245;52.832;13.816;2023-01-29T01:56:34;102429.16;;;1.20;67.34
17764;BME280;22245;52.832;13.816;2023-01-29T02:00:05;102424.81;;;1.18;67.03
17764;BME280;22245;52.832;13.816;2023-01-29T02:03:37;102420.47;;;1.18;67.00
17764;BME280;22245;52.832;13.816;2023-01-29T02:07:19;102419.56;;;1.19;67.19
17764;BME280;22245;52.832;13.816;2023-01-29T02:11:00;102416.03;;;1.20;67.17
17764;BME280;22245;52.832;13.816;2023-01-29T02:14:22;102416.03;;;1.20;67.87
17764;BME280;22245;52.832;13.816;2023-01-29T02:17:44;102402.97;;;1.17;67.84
17764;BME280;22245;52.832;13.816;2023-01-29T02:21:19;102402.97;;;1.17;68.41
17764;BME280;22245;52.832;13.816;2023-01-29T02:25:01;102402.97;;;1.17;68.58
17764;BME280;22245;52.832;13.816;2023-01-29T02:28:37;102405.66;;;1.14;68.15
17764;BME280;22245;52.832;13.816;2023-01-29T02:32:12;102410.88;;;1.15;68.73
17764;BME280;22245;52.832;13.816;2023-01-29T02:35:40;102410.84;;;1.17;68.90
17764;BME280;22245;52.832;13.816;2023-01-29T02:39:10;102402.03;;;1.20;68.64
17764;BME280;22245;52.832;13.816;2023-01-29T02:42:38;102404.66;;;1.21;69.19
17764;BME280;22245;52.832;13.816;2023-01-29T02:46:09;102392.38;;;1.22;68.90
17764;BME280;22245;52.832;13.816;2023-01-29T02:49:36;102395.81;;;1.25;69.27
17764;BME280;22245;52.832;13.816;2023-01-29T02:53:07;102397.56;;;1.26;69.51
17764;BME280;22245;52.832;13.816;2023-01-29T02:56:35;102394.94;;;1.25;69.23
17764;BME280;22245;52.832;13.816;2023-01-29T03:00:03;102397.59;;;1.23;69.97
17764;BME280;22245;52.832;13.816;2023-01-29T03:03:32;102387.94;;;1.25;69.78
17764;BME280;22245;52.832;13.816;2023-01-29T03:07:00;102385.25;;;1.28;69.20
17764;BME280;22245;52.832;13.816;2023-01-29T03:10:25;102382.59;;;1.30;70.11
17764;BME280;22245;52.832;13.816;2023-01-29T03:13:53;102372.97;;;1.30;69.69
17764;BME280;22245;52.832;13.816;2023-01-29T03:17:17;102370.28;;;1.34;70.24
17764;BME280;22245;52.832;13.816;2023-01-29T03:20:45;102371.16;;;1.33;69.77
17764;BME280;22245;52.832;13.816;2023-01-29T03:24:10;102359.78;;;1.34;70.59
17764;BME280;22245;52.832;13.816;2023-01-29T03:27:54;102350.16;;;1.33;70.73
17764;BME280;22245;52.832;13.816;2023-01-29T03:31:37;102340.50;;;1.35;70.25
17764;BME280;22245;52.832;13.816;2023-01-29T03:35:18;102333.53;;;1.34;70.85
17764;BME280;22245;52.832;13.816;2023-01-29T03:38:58;102325.66;;;1.34;71.65
17764;BME280;22245;52.832;13.816;2023-01-29T03:42:23;102318.59;;;1.36;71.59
17764;BME280;22245;52.832;13.816;2023-01-29T03:45:56;102314.22;;;1.36;72.28
17764;BME280;22245;52.832;13.816;2023-01-29T03:49:25;102306.38;;;1.35;72.97
17764;BME280;22245;52.832;13.816;2023-01-29T03:52:55;102313.34;;;1.36;73.33
17764;BME280;22245;52.832;13.816;2023-01-29T03:56:33;102324.81;;;1.33;73.30
17764;BME280;22245;52.832;13.816;2023-01-29T04:00:03;102319.56;;;1.33;73.80
17764;BME280;22245;52.832;13.816;2023-01-29T04:03:38;102302.84;;;1.36;73.36
17764;BME280;22245;52.832;13.816;2023-01-29T04:07:03;102300.22;;;1.36;73.70
17764;BME280;22245;52.832;13.816;2023-01-29T04:10:29;102293.19;;;1.38;74.06
17764;BME280;22245;52.832;13.816;2023-01-29T04:13:59;102284.47;;;1.37;74.42
17764;BME280;22245;52.832;13.816;2023-01-29T04:17:23;102294.00;;;1.40;74.92
17764;BME280;22245;52.832;13.816;2023-01-29T04:21:02;102288.81;;;1.38;76.16
17764;BME280;22245;52.832;13.816;2023-01-29T04:24:26;102290.53;;;1.39;76.20
17764;BME280;22245;52.832;13.816;2023-01-29T04:27:56;102282.69;;;1.38;76.74
17764;BME280;22245;52.832;13.816;2023-01-29T04:31:22;102285.28;;;1.39;77.55
17764;BME280;22245;52.832;13.816;2023-01-29T04:34:59;102274.88;;;1.35;77.12
17764;BME280;22245;52.832;13.816;2023-01-29T04:38:31;102280.94;;;1.38;77.21
17764;BME280;22245;52.832;13.816;2023-01-29T04:42:05;102280.06;;;1.38;77.70
17764;BME280;22245;52.832;13.816;2023-01-29T04:45:36;102294.97;;;1.37;77.34
17764;BME280;22245;52.832;13.816;2023-01-29T04:49:10;102301.88;;;1.41;77.79
17764;BME280;22245;52.832;13.816;2023-01-29T04:52:39;102300.06;;;1.43;78.08
17764;BME280;22245;52.832;13.816;2023-01-29T04:56:07;102290.41;;;1.44;77.63
17764;BME280;22245;52.832;13.816;2023-01-29T04:59:34;102303.47;;;1.47;78.17
17764;BME280;22245;52.832;13.816;2023-01-29T05:02:58;102297.41;;;1.45;77.99
17764;BME280;22245;52.832;13.816;2023-01-29T05:06:22;102299.94;;;1.48;78.30
17764;BME280;22245;52.832;13.816;2023-01-29T05:09:45;102285.94;;;1.49;78.69
17764;BME280;22245;52.832;13.816;2023-01-29T05:13:11;102287.69;;;1.49;78.63
17764;BME280;22245;52.832;13.816;2023-01-29T05:16:37;102284.19;;;1.48;78.77
17764;BME280;22245;52.832;13.816;2023-01-29T05:20:02;102286.81;;;1.48;78.90
17764;BME280;22245;52.832;13.816;2023-01-29T05:23:26;102278.09;;;1.48;79.49
17764;BME280;22245;52.832;13.816;2023-01-29T05:26:50;102279.06;;;1.43;79.81
17764;BME280;22245;52.832;13.816;2023-01-29T05:30:34;102286.91;;;1.45;79.48
17764;BME280;22245;52.832;13.816;2023-01-29T05:33:56;102287.69;;;1.49;79.92
17764;BME280;22245;52.832;13.816;2023-01-29T05:37:18;102292.91;;;1.50;80.22
17764;BME280;22245;52.832;13.816;2023-01-29T05:40:41;102285.00;;;1.53;80.16
17764;BME280;22245;52.832;13.816;2023-01-29T05:44:03;102287.53;;;1.56;80.24
17764;BME280;22245;52.832;13.816;2023-01-29T05:47:24;102298.88;;;1.58;80.39
17764;BME280;22245;52.832;13.816;2023-01-29T05:50:46;102297.97;;;1.59;80.55
17764;BME280;22245;52.832;13.816;2023-01-29T05:54:10;102299.72;;;1.59;80.94
17764;BME280;22245;52.832;13.816;2023-01-29T05:57:33;102304.94;;;1.61;80.73
17764;BME280;22245;52.832;13.816;2023-01-29T06:00:55;102301.50;;;1.58;81.42
17764;BME280;22245;52.832;13.816;2023-01-29T06:04:16;102295.34;;;1.59;81.06
17764;BME280;22245;52.832;13.816;2023-01-29T06:07:39;102283.97;;;1.59;81.27
17764;BME280;22245;52.832;13.816;2023-01-29T06:11:07;102291.97;;;1.54;81.70
17764;BME280;22245;52.832;13.816;2023-01-29T06:14:30;102299.78;;;1.57;81.35
17764;BME280;22245;52.832;13.816;2023-01-29T06:17:52;102284.88;;;1.58;81.37
17764;BME280;22245;52.832;13.816;2023-01-29T06:21:14;102277.03;;;1.56;81.37
17764;BME280;22245;52.832;13.816;2023-01-29T06:24:38;102275.34;;;1.54;81.90
17764;BME280;22245;52.832;13.816;2023-01-29T06:28:00;102281.38;;;1.57;81.34
17764;BME280;22245;52.832;13.816;2023-01-29T06:31:23;102283.13;;;1.57;81.10
17764;BME280;22245;52.832;13.816;2023-01-29T06:34:57;102278.75;;;1.57;81.30
17764;BME280;22245;52.832;13.816;2023-01-29T06:38:19;102281.34;;;1.59;81.11
17764;BME280;22245;52.832;13.816;2023-01-29T06:41:41;102292.72;;;1.59;81.23
17764;BME280;22245;52.832;13.816;2023-01-29T06:45:05;102286.59;;;1.59;81.52
17764;BME280;22245;52.832;13.816;2023-01-29T06:48:29;102296.25;;;1.58;81.44
17764;BME280;22245;52.832;13.816;2023-01-29T06:51:51;102298.00;;;1.58;81.55
17764;BME280;22245;52.832;13.816;2023-01-29T06:55:13;102292.06;;;1.50;82.09
17764;BME280;22245;52.832;13.816;2023-01-29T06:58:36;102291.97;;;1.54;81.69
17764;BME280;22245;52.832;13.816;2023-01-29T07:01:57;102284.03;;;1.57;82.42
17764;BME280;22245;52.832;13.816;2023-01-29T07:05:20;102284.78;;;1.61;81.73
17764;BME280;22245;52.832;13.816;2023-01-29T07:08:42;102290.03;;;1.63;81.93
17764;BME280;22245;52.832;13.816;2023-01-29T07:12:04;102292.59;;;1.66;81.81
17764;BME280;22245;52.832;13.816;2023-01-29T07:15:26;102288.09;;;1.69;81.46
17764;BME280;22245;52.832;13.816;2023-01-29T07:18:47;102279.31;;;1.70;81.24
17764;BME280;22245;52.832;13.816;2023-01-29T07:22:10;102297.72;;;1.70;81.76
17764;BME280;22245;52.832;13.816;2023-01-29T07:25:33;102290.81;;;1.66;82.00
17764;BME280;22245;52.832;13.816;2023-01-29T07:28:55;102282.81;;;1.71;82.15
17764;BME280;22245;52.832;13.816;2023-01-29T07:32:16;102297.72;;;1.70;82.04
17764;BME280;22245;52.832;13.816;2023-01-29T07:35:40;102274.88;;;1.74;82.31
17764;BME280;22245;52.832;13.816;2023-01-29T07:39:03;102268.78;;;1.72;82.16
17764;BME280;22245;52.832;13.816;2023-01-29T07:42:25;102261.81;;;1.71;82.50
17764;BME280;22245;52.832;13.816;2023-01-29T07:45:46;102255.69;;;1.70;81.93
17764;BME280;22245;52.832;13.816;2023-01-29T07:49:08;102241.63;;;1.73;82.16
17764;BME280;22245;52.832;13.816;2023-01-29T07:52:30;102263.53;;;1.72;82.28
17764;BME280;22245;52.832;13.816;2023-01-29T07:55:54;102268.72;;;1.75;82.14
17764;BME280;22245;52.832;13.816;2023-01-29T07:59:16;102255.56;;;1.77;82.19
17764;BME280;22245;52.832;13.816;2023-01-29T08:02:38;102245.81;;;1.80;82.04
17764;BME280;22245;52.832;13.816;2023-01-29T08:05:59;102253.69;;;1.82;81.99
17764;BME280;22245;52.832;13.816;2023-01-29T08:09:21;102254.47;;;1.85;82.05
17764;BME280;22245;52.832;13.816;2023-01-29T08:12:44;102257.06;;;1.87;81.77
17764;BME280;22245;52.832;13.816;2023-01-29T08:16:06;102249.19;;;1.85;81.50
17764;BME280;22245;52.832;13.816;2023-01-29T08:19:28;102248.31;;;1.86;81.72
17764;BME280;22245;52.832;13.816;2023-01-29T08:22:57;102255.25;;;1.89;81.52
17764;BME280;22245;52.832;13.816;2023-01-29T08:26:19;102246.50;;;1.88;82.01
17764;BME280;22245;52.832;13.816;2023-01-29T08:29:42;102247.41;;;1.87;82.02
17764;BME280;22245;52.832;13.816;2023-01-29T08:33:04;102245.56;;;1.91;81.99
17764;BME280;22245;52.832;13.816;2023-01-29T08:36:26;102245.47;;;1.96;81.92
17764;BME280;22245;52.832;13.816;2023-01-29T08:39:47;102239.25;;;1.98;81.81
17764;BME280;22245;52.832;13.816;2023-01-29T08:43:11;102227.81;;;2.01;81.64
17764;BME280;22245;52.832;13.816;2023-01-29T08:46:34;102231.34;;;2.00;81.74
17764;BME280;22245;52.832;13.816;2023-01-29T08:49:56;102224.28;;;2.02;81.94
17764;BME280;22245;52.832;13.816;2023-01-29T08:53:18;102231.28;;;2.03;81.92
17764;BME280;22245;52.832;13.816;2023-01-29T08:56:43;102223.34;;;2.05;81.75
17764;BME280;22245;52.832;13.816;2023-01-29T09:00:06;102229.41;;;2.07;81.67
17764;BME280;22245;52.832;13.816;2023-01-29T09:03:29;102229.38;;;2.08;81.54
17764;BME280;22245;52.832;13.816;2023-01-29T09:06:51;102233.75;;;2.09;81.57
17764;BME280;22245;52.832;13.816;2023-01-29T09:10:12;102244.25;;;2.09;81.69
17764;BME280;22245;52.832;13.816;2023-01-29T09:13:34;102239.81;;;2.11;81.08
17764;BME280;22245;52.832;13.816;2023-01-29T09:16:55;102238.97;;;2.11;81.62
17764;BME280;22245;52.832;13.816;2023-01-29T09:20:19;102234.63;;;2.10;81.66
17764;BME280;22245;52.832;13.816;2023-01-29T09:23:40;102227.56;;;2.10;81.85
17764;BME280;22245;52.832;13.816;2023-01-29T09:27:02;102231.94;;;2.11;81.79
17764;BME280;22245;52.832;13.816;2023-01-29T09:30:24;102219.59;;;2.15;81.88
17764;BME280;22245;52.832;13.816;2023-01-29T09:33:46;102219.50;;;2.18;81.96
17764;BME280;22245;52.832;13.816;2023-01-29T09:37:08;102217.63;;;2.22;81.80
17764;BME280;22245;52.832;13.816;2023-01-29T09:40:34;102211.41;;;2.26;81.21
17764;BME280;22245;52.832;13.816;2023-01-29T09:43:59;102233.22;;;2.29;81.95
17764;BME280;22245;52.832;13.816;2023-01-29T09:47:25;102221.84;;;2.29;81.99
17764;BME280;22245;52.832;13.816;2023-01-29T09:50:49;102210.34;;;2.33;81.88
17764;BME280;22245;52.832;13.816;2023-01-29T09:54:17;102208.53;;;2.35;81.92
17764;BME280;22245;52.832;13.816;2023-01-29T09:57:45;102206.69;;;2.39;81.72
17764;BME280;22245;52.832;13.816;2023-01-29T10:01:12;102195.41;;;2.35;81.68
17764;BME280;22245;52.832;13.816;2023-01-29T10:04:51;102195.31;;;2.38;82.39
17764;BME280;22245;52.832;13.816;2023-01-29T10:08:40;102191.78;;;2.39;82.25
17764;BME280;22245;52.832;13.816;2023-01-29T10:12:18;102201.31;;;2.42;82.27
17764;BME280;22245;52.832;13.816;2023-01-29T10:15:52;102194.44;;;2.38;82.11
17764;BME280;22245;52.832;13.816;2023-01-29T10:19:45;102193.44;;;2.42;82.84
17764;BME280;22245;52.832;13.816;2023-01-29T10:23:19;102207.38;;;2.45;82.50
17764;BME280;22245;52.832;13.816;2023-01-29T10:26:41;102195.97;;;2.46;82.74
17764;BME280;22245;52.832;13.816;2023-01-29T10:30:16;102174.03;;;2.46;83.21
17764;BME280;22245;52.832;13.816;2023-01-29T10:33:41;102175.00;;;2.43;83.62
17764;BME280;22245;52.832;13.816;2023-01-29T10:37:30;102170.38;;;2.52;83.70
17764;BME280;22245;52.832;13.816;2023-01-29T10:41:00;102155.34;;;2.57;83.78
17764;BME280;22245;52.832;13.816;2023-01-29T10:44:36;102147.44;;;2.57;83.45
17764;BME280;22245;52.832;13.816;2023-01-29T10:48:22;102128.94;;;2.60;83.65
17764;BME280;22245;52.832;13.816;2023-01-29T10:52:11;102128.13;;;2.58;84.38
17764;BME280;22245;52.832;13.816;2023-01-29T10:55:44;102122.75;;;2.63;83.81
17764;BME280;22245;52.832;13.816;2023-01-29T10:59:20;102125.28;;;2.66;83.43
17764;BME280;22245;52.832;13.816;2023-01-29T11:02:50;102117.34;;;2.67;83.76
17764;BME280;22245;52.832;13.816;2023-01-29T11:06:16;102121.72;;;2.68;84.06
17764;BME280;22245;52.832;13.816;2023-01-29T11:09:43;102125.19;;;2.69;83.30
17764;BME280;22245;52.832;13.816;2023-01-29T11:13:13;102113.75;;;2.70;83.93
17764;BME280;22245;52.832;13.816;2023-01-29T11:16:40;102096.22;;;2.70;83.80
17764;BME280;22245;52.832;13.816;2023-01-29T11:20:05;102103.28;;;2.68;83.88
17764;BME280;22245;52.832;13.816;2023-01-29T11:23:47;102096.97;;;2.74;83.34
17764;BME280;22245;52.832;13.816;2023-01-29T11:27:14;102097.88;;;2.73;83.47
17764;BME280;22245;52.832;13.816;2023-01-29T11:30:37;102086.34;;;2.77;83.84
17764;BME280;22245;52.832;13.816;2023-01-29T11:34:03;102088.88;;;2.80;84.01
17764;BME280;22245;52.832;13.816;2023-01-29T11:37:32;102082.56;;;2.86;84.23
17764;BME280;22245;52.832;13.816;2023-01-29T11:41:04;102076.19;;;2.93;83.56
17764;BME280;22245;52.832;13.816;2023-01-29T11:44:29;102079.44;;;3.01;83.04
17764;BME280;22245;52.832;13.816;2023-01-29T11:47:53;102074.97;;;3.05;82.34
17764;BME280;22245;52.832;13.816;2023-01-29T11:51:21;102068.75;;;3.08;82.63
17764;BME280;22245;52.832;13.816;2023-01-29T11:54:46;102054.69;;;3.09;82.35
17764;BME280;22245;52.832;13.816;2023-01-29T11:58:14;102043.97;;;3.13;82.43
17764;BME280;22245;52.832;13.816;2023-01-29T12:01:38;102030.59;;;3.19;82.22
17764;BME280;22245;52.832;13.816;2023-01-29T12:05:04;102024.34;;;3.24;81.13
17764;BME280;22245;52.832;13.816;2023-01-29T12:08:31;102032.16;;;3.27;81.14
17764;BME280;22245;52.832;13.816;2023-01-29T12:11:54;102022.34;;;3.30;80.58
17764;BME280;22245;52.832;13.816;2023-01-29T12:15:20;102011.59;;;3.37;80.35
17764;BME280;22245;52.832;13.816;2023-01-29T12:18:49;102008.84;;;3.40;80.40
17764;BME280;22245;52.832;13.816;2023-01-29T12:22:17;102006.22;;;3.40;80.33
17764;BME280;22245;52.832;13.816;2023-01-29T12:25:45;101997.34;;;3.44;80.21
17764;BME280;22245;52.832;13.816;2023-01-29T12:29:19;101986.69;;;3.47;79.64
17764;BME280;22245;52.832;13.816;2023-01-29T12:32:51;101996.22;;;3.50;79.08
17764;BME280;22245;52.832;13.816;2023-01-29T12:36:20;101995.28;;;3.52;78.33
17764;BME280;22245;52.832;13.816;2023-01-29T12:39:43;101987.31;;;3.54;77.60
17764;BME280;22245;52.832;13.816;2023-01-29T12:43:11;101997.97;;;3.51;77.80
17764;BME280;22245;52.832;13.816;2023-01-29T12:46:38;101982.91;;;3.54;78.00
17764;BME280;22245;52.832;13.816;2023-01-29T12:50:08;101988.06;;;3.57;78.14
17764;BME280;22245;52.832;13.816;2023-01-29T12:53:39;101989.69;;;3.61;77.92
17764;BME280;22245;52.832;13.816;2023-01-29T12:57:09;101995.75;;;3.64;77.32
17764;BME280;22245;52.832;13.816;2023-01-29T13:00:36;101990.38;;;3.67;77.31
17764;BME280;22245;52.832;13.816;2023-01-29T13:04:02;101991.16;;;3.69;77.70
17764;BME280;22245;52.832;13.816;2023-01-29T13:07:30;101974.44;;;3.70;77.59
17764;BME280;22245;52.832;13.816;2023-01-29T13:10:54;101979.59;;;3.73;77.82
17764;BME280;22245;52.832;13.816;2023-01-29T13:14:19;101969.03;;;3.74;77.09
17764;BME280;22245;52.832;13.816;2023-01-29T13:17:46;101956.69;;;3.75;76.58
17764;BME280;22245;52.832;13.816;2023-01-29T13:21:12;101960.09;;;3.79;76.29
17764;BME280;22245;52.832;13.816;2023-01-29T13:24:38;101952.13;;;3.80;75.68
17764;BME280;22245;52.832;13.816;2023-01-29T13:28:02;101950.31;;;3.82;76.15
17764;BME280;22245;52.832;13.816;2023-01-29T13:31:28;101952.03;;;3.83;76.32
17764;BME280;22245;52.832;13.816;2023-01-29T13:34:53;101955.44;;;3.85;75.74
17764;BME280;22245;52.832;13.816;2023-01-29T13:38:22;101942.31;;;3.84;76.11
17764;BME280;22245;52.832;13.816;2023-01-29T13:41:48;101943.78;;;3.91;75.35
17764;BME280;22245;52.832;13.816;2023-01-29T13:45:19;101932.41;;;3.90;74.75
17764;BME280;22245;52.832;13.816;2023-01-29T13:48:44;101934.19;;;3.90;74.67
17764;BME280;22245;52.832;13.816;2023-01-29T13:52:20;101933.25;;;3.91;74.75
17764;BME280;22245;52.832;13.816;2023-01-29T13:55:43;101930.69;;;3.89;74.32
17764;BME280;22245;52.832;13.816;2023-01-29T13:59:20;101929.69;;;3.92;74.46
17764;BME280;22245;52.832;13.816;2023-01-29T14:02:42;101919.03;;;3.95;73.64
17764;BME280;22245;52.832;13.816;2023-01-29T14:06:04;101917.28;;;3.96;73.84
17764;BME280;22245;52.832;13.816;2023-01-29T14:13:33;101909.28;;;3.97;73.37
17764;BME280;22245;52.832;13.816;2023-01-29T14:16:59;101909.38;;;3.96;74.23
17764;BME280;22245;52.832;13.816;2023-01-29T14:20:27;101905.81;;;3.97;73.63
17764;BME280;22245;52.832;13.816;2023-01-29T14:24:10;101904.09;;;3.96;74.19
17764;BME280;22245;52.832;13.816;2023-01-29T14:27:36;101901.47;;;3.96;73.86
17764;BME280;22245;52.832;13.816;2023-01-29T14:30:59;101900.66;;;3.94;73.83
17764;BME280;22245;52.832;13.816;2023-01-29T14:34:26;101898.06;;;3.92;73.97
17764;BME280;22245;52.832;13.816;2023-01-29T14:37:50;101892.75;;;3.94;73.70
17764;BME280;22245;52.832;13.816;2023-01-29T14:41:19;101893.59;;;3.94;73.83
17764;BME280;22245;52.832;13.816;2023-01-29T14:45:08;101891.88;;;3.93;74.34
17764;BME280;22245;52.832;13.816;2023-01-29T14:48:45;101883.97;;;3.93;74.97
17764;BME280;22245;52.832;13.816;2023-01-29T14:52:11;101881.53;;;3.88;75.24
17764;BME280;22245;52.832;13.816;2023-01-29T14:55:36;101878.09;;;3.86;75.90
17764;BME280;22245;52.832;13.816;2023-01-29T14:59:10;101876.50;;;3.82;76.09
17764;BME280;22245;52.832;13.816;2023-01-29T15:02:37;101873.88;;;3.82;77.27
17764;BME280;22245;52.832;13.816;2023-01-29T15:06:01;101866.94;;;3.80;77.76
17764;BME280;22245;52.832;13.816;2023-01-29T15:09:31;101863.53;;;3.76;78.22
17764;BME280;22245;52.832;13.816;2023-01-29T15:13:00;101864.47;;;3.75;78.18
17764;BME280;22245;52.832;13.816;2023-01-29T15:16:24;101855.75;;;3.73;78.70
17764;BME280;22245;52.832;13.816;2023-01-29T15:19:49;101848.91;;;3.69;78.89
17764;BME280;22245;52.832;13.816;2023-01-29T15:23:24;101840.31;;;3.64;79.05
17764;BME280;22245;52.832;13.816;2023-01-29T15:26:47;101843.97;;;3.59;79.33
17764;BME280;22245;52.832;13.816;2023-01-29T15:30:14;101839.69;;;3.57;79.41
17764;BME280;22245;52.832;13.816;2023-01-29T15:33:36;101835.41;;;3.54;79.61
17764;BME280;22245;52.832;13.816;2023-01-29T15:36:59;101827.50;;;3.54;79.33
17764;BME280;22245;52.832;13.816;2023-01-29T15:40:21;101830.13;;;3.54;79.52
17764;BME280;22245;52.832;13.816;2023-01-29T15:43:46;101820.69;;;3.48;79.31
17764;BME280;22245;52.832;13.816;2023-01-29T15:47:08;101822.41;;;3.50;79.57
17764;BME280;22245;52.832;13.816;2023-01-29T15:50:32;101821.69;;;3.46;79.43
17764;BME280;22245;52.832;13.816;2023-01-29T15:53:57;101819.16;;;3.43;79.35
17764;BME280;22245;52.832;13.816;2023-01-29T15:57:22;101816.53;;;3.43;79.21
17764;BME280;22245;52.832;13.816;2023-01-29T16:00:51;101809.47;;;3.43;79.82
17764;BME280;22245;52.832;13.816;2023-01-29T16:04:16;101809.75;;;3.36;79.72
17764;BME280;22245;52.832;13.816;2023-01-29T16:07:39;101812.34;;;3.37;79.58
17764;BME280;22245;52.832;13.816;2023-01-29T16:11:03;101807.19;;;3.34;79.27
17764;BME280;22245;52.832;13.816;2023-01-29T16:14:27;101806.50;;;3.29;79.92
17764;BME280;22245;52.832;13.816;2023-01-29T16:17:52;101804.72;;;3.29;80.34
17764;BME280;22245;52.832;13.816;2023-01-29T16:21:15;101809.97;;;3.29;79.74
17764;BME280;22245;52.832;13.816;2023-01-29T16:24:38;101810.78;;;3.31;79.98
17764;BME280;22245;52.832;13.816;2023-01-29T16:28:03;101804.69;;;3.31;80.18
17764;BME280;22245;52.832;13.816;2023-01-29T16:31:26;101796.69;;;3.32;79.92
17764;BME280;22245;52.832;13.816;2023-01-29T16:34:55;101801.06;;;3.33;79.57
17764;BME280;22245;52.832;13.816;2023-01-29T16:38:30;101790.75;;;3.27;80.19
17764;BME280;22245;52.832;13.816;2023-01-29T16:42:21;101788.06;;;3.29;80.06
17764;BME280;22245;52.832;13.816;2023-01-29T16:46:00;101784.66;;;3.27;80.12
17764;BME280;22245;52.832;13.816;2023-01-29T16:49:42;101786.53;;;3.23;80.18
17764;BME280;22245;52.832;13.816;2023-01-29T16:53:11;101782.19;;;3.22;80.62
17764;BME280;22245;52.832;13.816;2023-01-29T16:56:33;101778.66;;;3.22;80.28
17764;BME280;22245;52.832;13.816;2023-01-29T16:59:56;101764.66;;;3.21;80.08
17764;BME280;22245;52.832;13.816;2023-01-29T17:03:19;101771.75;;;3.19;80.16
17764;BME280;22245;52.832;13.816;2023-01-29T17:06:44;101768.34;;;3.17;80.85
17764;BME280;22245;52.832;13.816;2023-01-29T17:10:15;101751.75;;;3.15;80.35
17764;BME280;22245;52.832;13.816;2023-01-29T17:13:39;101763.06;;;3.17;81.05
17764;BME280;22245;52.832;13.816;2023-01-29T17:17:04;101758.88;;;3.11;80.85
17764;BME280;22245;52.832;13.816;2023-01-29T17:20:26;101745.00;;;3.08;80.39
17764;BME280;22245;52.832;13.816;2023-01-29T17:23:47;101741.50;;;3.07;80.87
17764;BME280;22245;52.832;13.816;2023-01-29T17:27:16;101742.34;;;3.08;80.21
17764;BME280;22245;52.832;13.816;2023-01-29T17:30:38;101740.56;;;3.08;80.32
17764;BME280;22245;52.832;13.816;2023-01-29T17:34:00;101731.72;;;3.11;80.03
17764;BME280;22245;52.832;13.816;2023-01-29T17:37:22;101720.31;;;3.10;79.38
17764;BME280;22245;52.832;13.816;2023-01-29T17:40:45;101710.66;;;3.11;79.99
17764;BME280;22245;52.832;13.816;2023-01-29T17:44:09;101708.88;;;3.11;79.25
17764;BME280;22245;52.832;13.816;2023-01-29T17:47:31;101700.00;;;3.14;79.29
17764;BME280;22245;52.832;13.816;2023-01-29T17:50:54;101689.66;;;3.09;79.01
17764;BME280;22245;52.832;13.816;2023-01-29T17:54:15;101690.44;;;3.11;78.57
17764;BME280;22245;52.832;13.816;2023-01-29T17:57:37;101679.06;;;3.11;78.95
17764;BME280;22245;52.832;13.816;2023-01-29T18:01:00;101672.00;;;3.11;78.31
17764;BME280;22245;52.832;13.816;2023-01-29T18:04:22;101665.91;;;3.11;78.29